Time;durP1;ratioP1;P1;durP2;ratioP2;P2;SDS_P1;SDS_P2;PMS_P1;PMS_P2;Temp;Humidity;BMP_temperature;BMP_pressure;BME280_temperature;BME280_humidity;BME280_pressure;Samples;Min_cycle;Max_cycle;Signal;HPM_P1;HPM_P2
2023/09/25 00:00:07;;;;;;;;;;;;;;;;;;6154210;23;19912;-91
2023/09/25 00:02:33;;;;;;;;;;;;;;;;;;6155263;23;20014;-91
2023/09/25 00:04:59;;;;;;;;;;;;;;;;;;6154928;23;19963;-92
2023/09/25 00:07:25;;;;;;;;;;;;;;;;;;6155374;23;19919;-94
2023/09/25 00:09:51;;;;;;;;;;;;;;;;;;6156463;23;19904;-94
2023/09/25 00:12:17;;;;;;;;;;;;;;;;;;6157097;23;19931;-94
2023/09/25 00:14:43;;;;;;;;;;;;;;;;;;6155763;23;19909;-93
2023/09/25 00:17:09;;;;;;;;;;;;;;;;;;6158008;23;20323;-95
2023/09/25 00:19:35;;;;;;;;;;;;;;;;;;6156048;23;19915;-94
2023/09/25 00:22:01;;;;;;;;;;;;;;;;;;6157970;23;19905;-94
2023/09/25 00:24:27;;;;;;;;;;;;;;;;;;6157807;23;19975;-94
2023/09/25 00:26:53;;;;;;;;;;;;;;;;;;6155798;23;19908;-91
2023/09/25 00:29:19;;;;;;;;;;;;;;;;;;6154404;23;19908;-91
2023/09/25 00:31:45;;;;;;;;;;;;;;;;;;6155205;23;19908;-90
2023/09/25 00:34:13;;;;;;;;;;;;;;;;;;6153805;23;19938;-91
2023/09/25 00:36:39;;;;;;;;;;;;;;;;;;6153674;23;19936;-91
2023/09/25 00:39:08;;;;;;;;;;;;;;;;;;6155219;23;20262;-90
2023/09/25 00:41:34;;;;;;;;;;;;;;;;;;6155916;23;19908;-91
2023/09/25 00:44:08;;;;;;;;;;;;;;;;;;6155833;23;22772;-91
2023/09/25 00:46:35;;;;;;;;;;;;;;;;;;6155755;23;20377;-91
2023/09/25 00:49:01;;;;;;;;;;;;;;;;;;6155197;23;19915;-91
2023/09/25 00:51:27;;;;;;;;;;;;;;;;;;6158579;23;19948;-91
2023/09/25 00:53:53;;;;;;;;;;;;;;;;;;6155732;23;20000;-90
2023/09/25 00:56:19;;;;;;;;;;;;;;;;;;6154894;23;19911;-91
2023/09/25 00:58:45;;;;;;;;;;;;;;;;;;6155638;23;19928;-91
2023/09/25 01:01:11;;;;;;;;;;;;;;;;;;6154987;23;19908;-90
2023/09/25 01:03:37;;;;;;;;;;;;;;;;;;6155157;23;19909;-90
2023/09/25 01:06:05;;;;;;;;;;;;;;;;;;6153849;23;20393;-90
2023/09/25 01:08:31;;;;;;;;;;;;;;;;;;6155205;23;19909;-91
2023/09/25 01:10:56;;;;;;;;;;;;;;;;;;6155360;23;19947;-90
2023/09/25 01:13:22;;;;;;;;;;;;;;;;;;6152832;23;19912;-91
2023/09/25 01:15:48;;;;;;;;;;;;;;;;;;6155245;23;19931;-90
2023/09/25 01:18:14;;;;;;;;;;;;;;;;;;6155993;23;19958;-95
2023/09/25 01:20:40;;;;;;;;;;;;;;;;;;6158673;23;19908;-95
2023/09/25 01:23:07;;;;;;;;;;;;;;;;;;6156639;23;19905;-92
2023/09/25 01:25:33;;;;;;;;;;;;;;;;;;6158762;23;20327;-94
2023/09/25 01:27:59;;;;;;;;;;;;;;;;;;6157831;23;20361;-92
2023/09/25 01:30:25;;;;;;;;;;;;;;;;;;6158984;23;19908;-95
2023/09/25 01:32:52;;;;;;;;;;;;;;;;;;6158947;23;19962;-94
2023/09/25 01:35:18;;;;;;;;;;;;;;;;;;6161478;23;20238;-92
2023/09/25 01:37:44;;;;;;;;;;;;;;;;;;6159458;23;19944;-92
2023/09/25 01:40:15;;;;;;;;;;;;;;;;;;6159934;23;19908;-94
2023/09/25 01:42:42;;;;;;;;;;;;;;;;;;6184834;23;20027;-94
2023/09/25 01:45:10;;;;;;;;;;;;;;;;;;6159146;23;19912;-95
2023/09/25 01:47:40;;;;;;;;;;;;;;;;;;6158897;23;19908;-95
2023/09/25 01:50:10;;;;;;;;;;;;;;;;;;6161021;23;20601;-94
2023/09/25 01:52:35;;;;;;;;;;;;;;;;;;6158851;23;20342;-94
2023/09/25 01:55:03;;;;;;;;;;;;;;;;;;6159604;23;19915;-94
2023/09/25 01:57:29;;;;;;;;;;;;;;;;;;6158258;23;19916;-96
2023/09/25 01:59:55;;;;;;;;;;;;;;;;;;6159323;23;19908;-94
2023/09/25 02:02:21;;;;;;;;;;;;;;;;;;6158963;23;19908;-93
2023/09/25 02:04:47;;;;;;;;;;;;;;;;;;6158761;23;19974;-94
2023/09/25 02:07:15;;;;;;;;;;;;;;;;;;6159161;23;19908;-93
2023/09/25 02:09:41;;;;;;;;;;;;;;;;;;6161305;23;19921;-95
2023/09/25 02:12:07;;;;;;;;;;;;;;;;;;6159200;23;20061;-94
2023/09/25 02:14:33;;;;;;;;;;;;;;;;;;6157951;23;20342;-94
2023/09/25 02:16:59;;;;;;;;;;;;;;;;;;6159102;23;20007;-94
2023/09/25 02:19:28;;;;;;;;;;;;;;;;;;6159149;23;20374;-92
2023/09/25 02:21:54;;;;;;;;;;;;;;;;;;6161557;23;19958;-95
2023/09/25 02:24:21;;;;;;;;;;;;;;;;;;6160319;23;19905;-93
2023/09/25 02:26:47;;;;;;;;;;;;;;;;;;6161809;23;20002;-95
2023/09/25 02:29:13;;;;;;;;;;;;;;;;;;6157470;23;19908;-91
2023/09/25 02:31:39;;;;;;;;;;;;;;;;;;6156686;23;20319;-92
2023/09/25 02:34:06;;;;;;;;;;;;;;;;;;6157037;23;19987;-90
2023/09/25 02:36:32;;;;;;;;;;;;;;;;;;6156641;23;20187;-90
2023/09/25 02:39:01;;;;;;;;;;;;;;;;;;6155037;23;19915;-94
2023/09/25 02:41:27;;;;;;;;;;;;;;;;;;6155575;23;19908;-94
2023/09/25 02:43:52;;;;;;;;;;;;;;;;;;6156327;23;19908;-94
2023/09/25 02:46:19;;;;;;;;;;;;;;;;;;6156805;23;19919;-94
2023/09/25 02:48:44;;;;;;;;;;;;;;;;;;6157137;23;19915;-91
2023/09/25 02:51:10;;;;;;;;;;;;;;;;;;6158008;23;19924;-91
2023/09/25 02:53:36;;;;;;;;;;;;;;;;;;6155886;23;20452;-91
2023/09/25 02:56:02;;;;;;;;;;;;;;;;;;6155187;23;19908;-91
2023/09/25 02:58:28;;;;;;;;;;;;;;;;;;6155142;23;20011;-90
2023/09/25 03:00:54;;;;;;;;;;;;;;;;;;6155894;23;19914;-92
2023/09/25 03:03:20;;;;;;;;;;;;;;;;;;6155982;23;20282;-91
2023/09/25 03:05:47;;;;;;;;;;;;;;;;;;6156349;23;19904;-91
2023/09/25 03:08:13;;;;;;;;;;;;;;;;;;6182191;23;19982;-91
2023/09/25 03:10:38;;;;;;;;;;;;;;;;;;6155861;23;19936;-91
2023/09/25 03:13:04;;;;;;;;;;;;;;;;;;6156204;23;19991;-91
2023/09/25 03:15:30;;;;;;;;;;;;;;;;;;6156243;23;19912;-93
2023/09/25 03:17:56;;;;;;;;;;;;;;;;;;6154936;23;20279;-92
2023/09/25 03:20:22;;;;;;;;;;;;;;;;;;6156521;23;19981;-91
2023/09/25 03:22:48;;;;;;;;;;;;;;;;;;6156797;23;19955;-91
2023/09/25 03:25:14;;;;;;;;;;;;;;;;;;6156380;23;19912;-91
2023/09/25 03:27:40;;;;;;;;;;;;;;;;;;6156454;23;19931;-91
2023/09/25 03:30:06;;;;;;;;;;;;;;;;;;6156968;23;19905;-91
2023/09/25 03:32:32;;;;;;;;;;;;;;;;;;6157586;23;19939;-91
2023/09/25 03:34:58;;;;;;;;;;;;;;;;;;6155321;23;20580;-91
2023/09/25 03:37:24;;;;;;;;;;;;;;;;;;6156295;23;19953;-90
2023/09/25 03:39:50;;;;;;;;;;;;;;;;;;6154668;23;19936;-90
2023/09/25 03:42:16;;;;;;;;;;;;;;;;;;6155467;23;19956;-91
2023/09/25 03:44:42;;;;;;;;;;;;;;;;;;6156259;23;19922;-92
2023/09/25 03:47:08;;;;;;;;;;;;;;;;;;6155833;23;19909;-94
2023/09/25 03:49:34;;;;;;;;;;;;;;;;;;6157125;23;19926;-95
2023/09/25 03:51:59;;;;;;;;;;;;;;;;;;6158742;23;19927;-94
2023/09/25 03:54:25;;;;;;;;;;;;;;;;;;6155954;23;19912;-94
2023/09/25 03:56:51;;;;;;;;;;;;;;;;;;6156705;23;19908;-91
2023/09/25 03:59:17;;;;;;;;;;;;;;;;;;6155138;23;19908;-92
2023/09/25 04:01:43;;;;;;;;;;;;;;;;;;6155795;23;19905;-92
2023/09/25 04:04:12;;;;;;;;;;;;;;;;;;6156174;23;19915;-92
2023/09/25 04:06:38;;;;;;;;;;;;;;;;;;6155530;23;19916;-92
2023/09/25 04:09:07;;;;;;;;;;;;;;;;;;6154558;23;19908;-92
2023/09/25 04:11:33;;;;;;;;;;;;;;;;;;6154753;23;19908;-91
2023/09/25 04:14:00;;;;;;;;;;;;;;;;;;6153563;23;19994;-92
2023/09/25 04:16:28;;;;;;;;;;;;;;;;;;6155513;23;19991;-91
2023/09/25 04:18:53;;;;;;;;;;;;;;;;;;6155527;23;19909;-91
2023/09/25 04:21:21;;;;;;;;;;;;;;;;;;6156520;23;19928;-91
2023/09/25 04:23:47;;;;;;;;;;;;;;;;;;6182226;23;19943;-92
2023/09/25 04:26:13;;;;;;;;;;;;;;;;;;6155743;23;19912;-92
2023/09/25 04:28:42;;;;;;;;;;;;;;;;;;6154785;23;20334;-91
2023/09/25 04:31:10;;;;;;;;;;;;;;;;;;6155000;23;19915;-92
2023/09/25 04:33:36;;;;;;;;;;;;;;;;;;6153965;23;19979;-91
2023/09/25 04:36:02;;;;;;;;;;;;;;;;;;6155084;23;19943;-91
2023/09/25 04:38:28;;;;;;;;;;;;;;;;;;6154556;23;19915;-91
2023/09/25 04:40:54;;;;;;;;;;;;;;;;;;6181719;23;19904;-91
2023/09/25 04:43:20;;;;;;;;;;;;;;;;;;6154119;23;19912;-91
2023/09/25 04:45:46;;;;;;;;;;;;;;;;;;6155937;23;19913;-92
2023/09/25 04:48:13;;;;;;;;;;;;;;;;;;6155583;23;20249;-91
2023/09/25 04:50:40;;;;;;;;;;;;;;;;;;6157790;22;19908;-91
2023/09/25 04:53:08;;;;;;;;;;;;;;;;;;6153981;23;20361;-91
2023/09/25 04:55:36;;;;;;;;;;;;;;;;;;6154577;23;19912;-90
2023/09/25 04:58:02;;;;;;;;;;;;;;;;;;6154381;23;19911;-93
2023/09/25 05:00:28;;;;;;;;;;;;;;;;;;6154184;23;19908;-88
2023/09/25 05:02:54;;;;;;;;;;;;;;;;;;6179183;23;19912;-87
2023/09/25 05:05:20;;;;;;;;;;;;;;;;;;6152479;23;19931;-88
2023/09/25 05:07:46;;;;;;;;;;;;;;;;;;6153297;23;19912;-89
2023/09/25 05:10:12;;;;;;;;;;;;;;;;;;6154808;23;19905;-89
2023/09/25 05:12:38;;;;;;;;;;;;;;;;;;6152399;23;19915;-90
2023/09/25 05:15:05;;;;;;;;;;;;;;;;;;6152518;23;19919;-90
2023/09/25 05:17:31;;;;;;;;;;;;;;;;;;6154211;23;19984;-90
2023/09/25 05:19:58;;;;;;;;;;;;;;;;;;6154812;23;19908;-90
2023/09/25 05:22:24;;;;;;;;;;;;;;;;;;6154163;23;19908;-90
2023/09/25 05:24:50;;;;;;;;;;;;;;;;;;6154280;23;19915;-90
2023/09/25 05:27:22;;;;;;;;;;;;;;;;;;6153828;23;20370;-90
2023/09/25 05:29:48;;;;;;;;;;;;;;;;;;6181056;23;19987;-90
2023/09/25 05:32:13;;;;;;;;;;;;;;;;;;6154271;23;19936;-90
2023/09/25 05:34:39;;;;;;;;;;;;;;;;;;6155145;23;19908;-90
2023/09/25 05:37:06;;;;;;;;;;;;;;;;;;6155164;23;19916;-90
2023/09/25 05:39:31;;;;;;;;;;;;;;;;;;6154078;23;19908;-89
2023/09/25 05:41:57;;;;;;;;;;;;;;;;;;6153983;23;19954;-90
2023/09/25 05:44:23;;;;;;;;;;;;;;;;;;6180161;23;19914;-90
2023/09/25 05:46:49;;;;;;;;;;;;;;;;;;6154371;23;19912;-90
2023/09/25 05:49:16;;;;;;;;;;;;;;;;;;6153630;23;19924;-90
2023/09/25 05:51:41;;;;;;;;;;;;;;;;;;6159059;23;19927;-90
2023/09/25 05:54:07;;;;;;;;;;;;;;;;;;6153732;23;19904;-90
2023/09/25 05:56:33;;;;;;;;;;;;;;;;;;6154606;23;19911;-90
2023/09/25 05:58:59;;;;;;;;;;;;;;;;;;6153909;23;19904;-90
2023/09/25 06:01:26;;;;;;;;;;;;;;;;;;6182653;23;19913;-90
2023/09/25 06:03:54;;;;;;;;;;;;;;;;;;6155605;23;19904;-90
2023/09/25 06:06:20;;;;;;;;;;;;;;;;;;6181024;23;19912;-89
2023/09/25 06:08:45;;;;;;;;;;;;;;;;;;6154471;23;20330;-89
2023/09/25 06:11:15;;;;;;;;;;;;;;;;;;6154109;23;19908;-89
2023/09/25 06:13:41;;;;;;;;;;;;;;;;;;6151968;23;19911;-89
2023/09/25 06:16:06;;;;;;;;;;;;;;;;;;6153658;23;19908;-89
2023/09/25 06:18:40;;;;;;;;;;;;;;;;;;6154789;23;19904;-90
2023/09/25 06:21:08;;;;;;;;;;;;;;;;;;6155916;23;20330;-90
2023/09/25 06:23:34;;;;;;;;;;;;;;;;;;6156955;23;20309;-89
2023/09/25 06:26:01;;;;;;;;;;;;;;;;;;6182295;23;19908;-89
2023/09/25 06:28:29;;;;;;;;;;;;;;;;;;6156729;23;19935;-90
2023/09/25 06:31:02;;;;;;;;;;;;;;;;;;6156116;23;19954;-90
2023/09/25 06:33:28;;;;;;;;;;;;;;;;;;6155466;23;19912;-89
2023/09/25 06:35:54;;;;;;;;;;;;;;;;;;6155686;23;19915;-90
2023/09/25 06:38:20;;;;;;;;;;;;;;;;;;6181418;23;19904;-90
2023/09/25 06:40:46;;;;;;;;;;;;;;;;;;6156334;23;19915;-89
2023/09/25 06:43:12;;;;;;;;;;;;;;;;;;6155247;23;20304;-89
2023/09/25 06:45:38;;;;;;;;;;;;;;;;;;6155870;23;19912;-90
2023/09/25 06:48:04;;;;;;;;;;;;;;;;;;6180691;23;19905;-90
2023/09/25 06:50:30;;;;;;;;;;;;;;;;;;6155460;23;19908;-89
2023/09/25 06:52:56;;;;;;;;;;;;;;;;;;6157047;23;20339;-89
2023/09/25 06:55:22;;;;;;;;;;;;;;;;;;6180675;23;19991;-89
2023/09/25 06:57:48;;;;;;;;;;;;;;;;;;6180482;23;20250;-89
2023/09/25 07:00:14;;;;;;;;;;;;;;;;;;6155624;23;20283;-89
2023/09/25 07:02:40;;;;;;;;;;;;;;;;;;6155359;23;19904;-89
2023/09/25 07:05:06;;;;;;;;;;;;;;;;;;6155593;23;19912;-89
2023/09/25 07:07:32;;;;;;;;;;;;;;;;;;6154616;23;19904;-90
2023/09/25 07:09:58;;;;;;;;;;;;;;;;;;6182286;23;19908;-89
2023/09/25 07:12:24;;;;;;;;;;;;;;;;;;6154596;23;19908;-90
2023/09/25 07:14:56;;;;;;;;;;;;;;;;;;6154461;23;19919;-90
2023/09/25 07:17:21;;;;;;;;;;;;;;;;;;6153958;23;19987;-89
2023/09/25 07:19:47;;;;;;;;;;;;;;;;;;6154426;23;19951;-89
2023/09/25 07:22:20;;;;;;;;;;;;;;;;;;6180640;23;20295;-90
2023/09/25 07:24:46;;;;;;;;;;;;;;;;;;6154491;23;20315;-90
2023/09/25 07:27:12;;;;;;;;;;;;;;;;;;6153127;23;19919;-90
2023/09/25 07:29:38;;;;;;;;;;;;;;;;;;6155099;23;19908;-90
2023/09/25 07:32:04;;;;;;;;;;;;;;;;;;6154831;23;20340;-90
2023/09/25 07:34:30;;;;;;;;;;;;;;;;;;6155056;23;20034;-90
2023/09/25 07:36:56;;;;;;;;;;;;;;;;;;6155683;23;19964;-90
2023/09/25 07:39:23;;;;;;;;;;;;;;;;;;6200506;23;19900;-93
2023/09/25 07:41:49;;;;;;;;;;;;;;;;;;6175333;23;19932;-94
2023/09/25 07:44:16;;;;;;;;;;;;;;;;;;6174218;23;19908;-92
2023/09/25 07:46:43;;;;;;;;;;;;;;;;;;6174850;23;19939;-94
2023/09/25 07:49:09;;;;;;;;;;;;;;;;;;6173687;23;19904;-91
2023/09/25 07:51:38;;;;;;;;;;;;;;;;;;6172463;23;19932;-92
2023/09/25 07:54:05;;;;;;;;;;;;;;;;;;6171895;23;19940;-91
2023/09/25 07:56:31;;;;;;;;;;;;;;;;;;6170719;23;19892;-92
2023/09/25 07:58:57;;;;;;;;;;;;;;;;;;6168848;23;19915;-93
2023/09/25 08:01:29;;;;;;;;;;;;;;;;;;6171401;23;19999;-92
2023/09/25 08:03:54;;;;;;;;;;;;;;;;;;6168922;23;20351;-94
2023/09/25 08:06:24;;;;;;;;;;;;;;;;;;6196982;23;20021;-91
2023/09/25 08:08:50;;;;;;;;;;;;;;;;;;6170613;23;20218;-92
2023/09/25 08:11:17;;;;;;;;;;;;;;;;;;6172307;23;19919;-91
2023/09/25 08:13:43;;;;;;;;;;;;;;;;;;6170152;23;19980;-93
2023/09/25 08:16:09;;;;;;;;;;;;;;;;;;6170064;23;20425;-93
2023/09/25 08:18:35;;;;;;;;;;;;;;;;;;6170848;23;19908;-93
2023/09/25 08:21:00;;;;;;;;;;;;;;;;;;6168724;23;19904;-92
2023/09/25 08:23:26;;;;;;;;;;;;;;;;;;6171092;23;19908;-92
2023/09/25 08:25:53;;;;;;;;;;;;;;;;;;6173695;23;19964;-91
2023/09/25 08:28:19;;;;;;;;;;;;;;;;;;6169663;23;19964;-93
2023/09/25 08:30:45;;;;;;;;;;;;;;;;;;6171523;23;19912;-94
2023/09/25 08:33:11;;;;;;;;;;;;;;;;;;6171617;23;19990;-93
2023/09/25 08:35:37;;;;;;;;;;;;;;;;;;6169902;23;19900;-93
2023/09/25 08:38:03;;;;;;;;;;;;;;;;;;6162613;23;19990;-90
2023/09/25 08:40:29;;;;;;;;;;;;;;;;;;6152839;23;19908;-90
2023/09/25 08:42:55;;;;;;;;;;;;;;;;;;6154400;23;19966;-90
2023/09/25 08:45:22;;;;;;;;;;;;;;;;;;6154447;23;19912;-90
2023/09/25 08:47:47;;;;;;;;;;;;;;;;;;6154754;23;19904;-89
2023/09/25 08:50:13;;;;;;;;;;;;;;;;;;6154989;23;19948;-91
2023/09/25 08:52:46;;;;;;;;;;;;;;;;;;6156009;23;19927;-89
2023/09/25 08:55:12;;;;;;;;;;;;;;;;;;6154402;23;19935;-90
2023/09/25 08:57:38;;;;;;;;;;;;;;;;;;6178532;23;19978;-89
2023/09/25 09:00:11;;;;;;;;;;;;;;;;;;6180028;23;19931;-90
2023/09/25 09:02:40;;;;;;;;;;;;;;;;;;6154271;23;19908;-90
2023/09/25 09:05:06;;;;;;;;;;;;;;;;;;6155094;23;19912;-91
2023/09/25 09:07:33;;;;;;;;;;;;;;;;;;6152354;23;19947;-90
2023/09/25 09:09:59;;;;;;;;;;;;;;;;;;6154586;23;20000;-90
2023/09/25 09:12:25;;;;;;;;;;;;;;;;;;6154400;23;19943;-90
2023/09/25 09:14:51;;;;;;;;;;;;;;;;;;6152893;23;19998;-89
2023/09/25 09:17:17;;;;;;;;;;;;;;;;;;6154867;23;19913;-90
2023/09/25 09:19:43;;;;;;;;;;;;;;;;;;6154109;23;20246;-90
2023/09/25 09:22:17;;;;;;;;;;;;;;;;;;6153978;23;19904;-90
2023/09/25 09:24:47;;;;;;;;;;;;;;;;;;6154696;23;19912;-90
2023/09/25 09:27:14;;;;;;;;;;;;;;;;;;6153092;23;19959;-90
2023/09/25 09:29:40;;;;;;;;;;;;;;;;;;6153955;23;19959;-89
2023/09/25 09:32:06;;;;;;;;;;;;;;;;;;6153648;23;19908;-90
2023/09/25 09:34:32;;;;;;;;;;;;;;;;;;6153778;23;20450;-90
2023/09/25 09:36:58;;;;;;;;;;;;;;;;;;6152928;23;20271;-90
2023/09/25 09:39:27;;;;;;;;;;;;;;;;;;6154170;23;19913;-89
2023/09/25 09:41:55;;;;;;;;;;;;;;;;;;6153429;23;19908;-90
2023/09/25 09:44:21;;;;;;;;;;;;;;;;;;6153900;23;20462;-89
2023/09/25 09:46:50;;;;;;;;;;;;;;;;;;6155099;23;19912;-89
2023/09/25 09:49:16;;;;;;;;;;;;;;;;;;6154472;23;19908;-90
2023/09/25 09:51:42;;;;;;;;;;;;;;;;;;6155276;23;19966;-90
2023/09/25 09:54:08;;;;;;;;;;;;;;;;;;6160487;23;19916;-90
2023/09/25 09:56:34;;;;;;;;;;;;;;;;;;6156467;23;20319;-90
2023/09/25 09:59:01;;;;;;;;;;;;;;;;;;6155656;23;19931;-90
2023/09/25 10:01:27;;;;;;;;;;;;;;;;;;6157174;23;19904;-91
2023/09/25 10:03:53;;;;;;;;;;;;;;;;;;6156651;23;19987;-91
2023/09/25 10:06:19;;;;;;;;;;;;;;;;;;6154870;23;19912;-91
2023/09/25 10:08:45;;;;;;;;;;;;;;;;;;6181640;23;19954;-92
2023/09/25 10:11:11;;;;;;;;;;;;;;;;;;6155776;23;19908;-91
2023/09/25 10:13:37;;;;;;;;;;;;;;;;;;6154176;23;19919;-90
2023/09/25 10:16:03;;;;;;;;;;;;;;;;;;6155834;23;19915;-90
2023/09/25 10:18:29;;;;;;;;;;;;;;;;;;6156323;23;19908;-91
2023/09/25 10:20:55;;;;;;;;;;;;;;;;;;6155024;23;20361;-90
2023/09/25 10:23:21;;;;;;;;;;;;;;;;;;6156404;23;19915;-90
2023/09/25 10:26:02;;;;;;;;;;;;;;;;;;6155425;23;19965;-91
2023/09/25 10:28:29;;;;;;;;;;;;;;;;;;6155798;23;19908;-91
2023/09/25 10:30:55;;;;;;;;;;;;;;;;;;6155839;23;20344;-90
2023/09/25 10:33:21;;;;;;;;;;;;;;;;;;6156727;23;19909;-90
2023/09/25 10:35:50;;;;;;;;;;;;;;;;;;6156121;23;19915;-90
2023/09/25 10:38:18;;;;;;;;;;;;;;;;;;6156068;23;19913;-91
2023/09/25 10:40:44;;;;;;;;;;;;;;;;;;6155314;23;19943;-90
2023/09/25 10:43:10;;;;;;;;;;;;;;;;;;6153618;23;19908;-90
2023/09/25 10:45:36;;;;;;;;;;;;;;;;;;6155614;23;20001;-91
2023/09/25 10:48:02;;;;;;;;;;;;;;;;;;6155609;23;19912;-91
2023/09/25 10:50:28;;;;;;;;;;;;;;;;;;6156080;23;19908;-90
2023/09/25 10:52:54;;;;;;;;;;;;;;;;;;6158221;22;19967;-91
2023/09/25 10:55:20;;;;;;;;;;;;;;;;;;6155094;23;19919;-90
2023/09/25 10:57:47;;;;;;;;;;;;;;;;;;6155151;23;20216;-91
2023/09/25 11:00:15;;;;;;;;;;;;;;;;;;6182759;23;20315;-91
2023/09/25 11:02:41;;;;;;;;;;;;;;;;;;6155457;23;20504;-90
2023/09/25 11:05:07;;;;;;;;;;;;;;;;;;6155775;23;19908;-90
2023/09/25 11:07:33;;;;;;;;;;;;;;;;;;6155791;23;19983;-94
2023/09/25 11:09:59;;;;;;;;;;;;;;;;;;6158067;23;19948;-93
2023/09/25 11:12:25;;;;;;;;;;;;;;;;;;6154622;23;19905;-94
2023/09/25 11:14:51;;;;;;;;;;;;;;;;;;6155762;23;19944;-93
2023/09/25 11:17:16;;;;;;;;;;;;;;;;;;6156158;23;20484;-94
2023/09/25 11:19:45;;;;;;;;;;;;;;;;;;6155842;23;19908;-94
2023/09/25 11:22:11;;;;;;;;;;;;;;;;;;6156071;23;19908;-92
2023/09/25 11:24:37;;;;;;;;;;;;;;;;;;6156465;23;19911;-96
2023/09/25 11:27:03;;;;;;;;;;;;;;;;;;6154829;23;19935;-91
2023/09/25 11:29:39;;;;;;;;;;;;;;;;;;6156384;23;19911;-93
2023/09/25 11:32:08;;;;;;;;;;;;;;;;;;6156437;23;20443;-94
2023/09/25 11:34:34;;;;;;;;;;;;;;;;;;6156100;23;19908;-95
2023/09/25 11:37:02;;;;;;;;;;;;;;;;;;6155656;23;19983;-93
2023/09/25 11:39:28;;;;;;;;;;;;;;;;;;6157058;23;19908;-94
2023/09/25 11:41:54;;;;;;;;;;;;;;;;;;6156429;23;19983;-94
2023/09/25 11:44:20;;;;;;;;;;;;;;;;;;6156515;23;20333;-93
2023/09/25 11:46:45;;;;;;;;;;;;;;;;;;6155382;23;19915;-92
2023/09/25 11:49:14;;;;;;;;;;;;;;;;;;6155756;23;20266;-93
2023/09/25 11:51:40;;;;;;;;;;;;;;;;;;6155509;23;19931;-93
2023/09/25 11:54:06;;;;;;;;;;;;;;;;;;6158138;23;19931;-93
2023/09/25 11:56:32;;;;;;;;;;;;;;;;;;6155442;23;19908;-94
2023/09/25 11:59:00;;;;;;;;;;;;;;;;;;6155336;23;19939;-94
2023/09/25 12:01:25;;;;;;;;;;;;;;;;;;6157362;23;19908;-95
2023/09/25 12:03:51;;;;;;;;;;;;;;;;;;6155175;23;20449;-93
2023/09/25 12:06:18;;;;;;;;;;;;;;;;;;6156307;23;19915;-93
2023/09/25 12:08:44;;;;;;;;;;;;;;;;;;6156399;23;19904;-91
2023/09/25 12:11:10;;;;;;;;;;;;;;;;;;6180748;23;19935;-90
2023/09/25 12:13:36;;;;;;;;;;;;;;;;;;6153856;23;19931;-90
2023/09/25 12:16:02;;;;;;;;;;;;;;;;;;6152989;23;19904;-90
2023/09/25 12:18:28;;;;;;;;;;;;;;;;;;6154208;23;19908;-91
2023/09/25 12:20:54;;;;;;;;;;;;;;;;;;6155142;23;20039;-90
2023/09/25 12:23:20;;;;;;;;;;;;;;;;;;6156270;23;19967;-90
2023/09/25 12:25:46;;;;;;;;;;;;;;;;;;6156228;23;20242;-90
2023/09/25 12:28:12;;;;;;;;;;;;;;;;;;6155576;23;19959;-90
2023/09/25 12:30:38;;;;;;;;;;;;;;;;;;6155151;23;20208;-90
2023/09/25 12:33:10;;;;;;;;;;;;;;;;;;6155033;23;20801;-91
2023/09/25 12:35:40;;;;;;;;;;;;;;;;;;6155353;23;20377;-90
2023/09/25 12:38:06;;;;;;;;;;;;;;;;;;6154183;23;19908;-90
2023/09/25 12:40:32;;;;;;;;;;;;;;;;;;6154599;23;19915;-90
2023/09/25 12:42:59;;;;;;;;;;;;;;;;;;6154249;23;19904;-90
2023/09/25 12:45:24;;;;;;;;;;;;;;;;;;6155107;23;19912;-89
2023/09/25 12:47:50;;;;;;;;;;;;;;;;;;6153547;23;19908;-90
2023/09/25 12:50:16;;;;;;;;;;;;;;;;;;6154705;23;20437;-91
2023/09/25 12:52:42;;;;;;;;;;;;;;;;;;6153203;23;19912;-90
2023/09/25 12:55:08;;;;;;;;;;;;;;;;;;6156904;23;19927;-91
2023/09/25 12:57:35;;;;;;;;;;;;;;;;;;6153915;23;20543;-89
2023/09/25 13:00:01;;;;;;;;;;;;;;;;;;6153411;23;19908;-89
2023/09/25 13:02:27;;;;;;;;;;;;;;;;;;6154480;23;19908;-90
2023/09/25 13:04:53;;;;;;;;;;;;;;;;;;6153482;23;19915;-90
2023/09/25 13:07:19;;;;;;;;;;;;;;;;;;6152931;23;19908;-91
2023/09/25 13:09:45;;;;;;;;;;;;;;;;;;6180062;23;19912;-89
2023/09/25 13:12:11;;;;;;;;;;;;;;;;;;6153029;23;19908;-90
2023/09/25 13:14:37;;;;;;;;;;;;;;;;;;6152780;23;19908;-90
2023/09/25 13:17:03;;;;;;;;;;;;;;;;;;6154288;23;20267;-90
2023/09/25 13:19:29;;;;;;;;;;;;;;;;;;6154654;23;19905;-90
2023/09/25 13:21:55;;;;;;;;;;;;;;;;;;6154576;23;19959;-90
2023/09/25 13:24:21;;;;;;;;;;;;;;;;;;6153689;23;20439;-90
2023/09/25 13:26:47;;;;;;;;;;;;;;;;;;6155543;23;19908;-93
2023/09/25 13:29:13;;;;;;;;;;;;;;;;;;6155838;23;19908;-90
2023/09/25 13:31:39;;;;;;;;;;;;;;;;;;6156191;23;19913;-90
2023/09/25 13:34:05;;;;;;;;;;;;;;;;;;6155723;23;20005;-90
2023/09/25 13:36:32;;;;;;;;;;;;;;;;;;6155731;23;19938;-90
2023/09/25 13:38:57;;;;;;;;;;;;;;;;;;6156407;23;20109;-91
2023/09/25 13:41:24;;;;;;;;;;;;;;;;;;6155338;23;19986;-90
2023/09/25 13:43:49;;;;;;;;;;;;;;;;;;6156021;23;19916;-90
2023/09/25 13:46:15;;;;;;;;;;;;;;;;;;6155667;23;19912;-90
2023/09/25 13:48:42;;;;;;;;;;;;;;;;;;6156739;23;19983;-90
2023/09/25 13:51:08;;;;;;;;;;;;;;;;;;6155393;23;19915;-90
2023/09/25 13:53:35;;;;;;;;;;;;;;;;;;6160286;22;20408;-90
2023/09/25 13:56:01;;;;;;;;;;;;;;;;;;6155798;23;19912;-90
2023/09/25 13:58:27;;;;;;;;;;;;;;;;;;6156260;23;19909;-91
2023/09/25 14:00:54;;;;;;;;;;;;;;;;;;6158009;23;19911;-90
2023/09/25 14:03:20;;;;;;;;;;;;;;;;;;6156220;23;20516;-90
2023/09/25 14:05:46;;;;;;;;;;;;;;;;;;6157582;23;19916;-90
2023/09/25 14:08:12;;;;;;;;;;;;;;;;;;6156705;23;19915;-90
2023/09/25 14:10:38;;;;;;;;;;;;;;;;;;6156265;23;19936;-91
2023/09/25 14:13:04;;;;;;;;;;;;;;;;;;6152885;23;19929;-91
2023/09/25 14:15:30;;;;;;;;;;;;;;;;;;6155286;23;19908;-90
2023/09/25 14:17:56;;;;;;;;;;;;;;;;;;6155271;23;19908;-91
2023/09/25 14:20:22;;;;;;;;;;;;;;;;;;6155201;23;19987;-91
2023/09/25 14:22:48;;;;;;;;;;;;;;;;;;6154890;23;19988;-91
2023/09/25 14:25:14;;;;;;;;;;;;;;;;;;6155154;23;19962;-90
2023/09/25 14:27:40;;;;;;;;;;;;;;;;;;6155248;23;19908;-90
2023/09/25 14:30:06;;;;;;;;;;;;;;;;;;6156538;23;19919;-91
2023/09/25 14:32:32;;;;;;;;;;;;;;;;;;6157036;23;19914;-91
2023/09/25 14:34:58;;;;;;;;;;;;;;;;;;6156282;23;19908;-90
2023/09/25 14:37:24;;;;;;;;;;;;;;;;;;6156266;23;20331;-90
2023/09/25 14:39:51;;;;;;;;;;;;;;;;;;6154166;23;20488;-90
2023/09/25 14:42:17;;;;;;;;;;;;;;;;;;6155068;23;19912;-90
2023/09/25 14:44:43;;;;;;;;;;;;;;;;;;6154371;23;19912;-91
2023/09/25 14:47:09;;;;;;;;;;;;;;;;;;6154586;23;19920;-90
2023/09/25 14:49:34;;;;;;;;;;;;;;;;;;6155260;23;19919;-90
2023/09/25 14:52:00;;;;;;;;;;;;;;;;;;6154444;23;19959;-90
2023/09/25 14:54:26;;;;;;;;;;;;;;;;;;6156883;23;19924;-90
2023/09/25 14:56:52;;;;;;;;;;;;;;;;;;6154734;23;19911;-91
2023/09/25 14:59:18;;;;;;;;;;;;;;;;;;6153838;23;19908;-90
2023/09/25 15:01:44;;;;;;;;;;;;;;;;;;6154991;23;19931;-90
2023/09/25 15:04:10;;;;;;;;;;;;;;;;;;6154891;23;19909;-90
2023/09/25 15:06:36;;;;;;;;;;;;;;;;;;6155549;23;19908;-90
2023/09/25 15:09:02;;;;;;;;;;;;;;;;;;6155212;23;19915;-91
2023/09/25 15:11:28;;;;;;;;;;;;;;;;;;6156263;23;20349;-90
2023/09/25 15:13:54;;;;;;;;;;;;;;;;;;6153249;23;20417;-90
2023/09/25 15:16:20;;;;;;;;;;;;;;;;;;6154210;23;19908;-91
2023/09/25 15:18:46;;;;;;;;;;;;;;;;;;6153253;23;19920;-90
2023/09/25 15:21:12;;;;;;;;;;;;;;;;;;6153765;23;19952;-90
2023/09/25 15:23:38;;;;;;;;;;;;;;;;;;6153618;23;19904;-90
2023/09/25 15:26:04;;;;;;;;;;;;;;;;;;6154056;23;19923;-89
2023/09/25 15:28:30;;;;;;;;;;;;;;;;;;6153246;23;19963;-90
2023/09/25 15:30:56;;;;;;;;;;;;;;;;;;6153895;23;20175;-91
2023/09/25 15:33:22;;;;;;;;;;;;;;;;;;6154099;23;19908;-90
2023/09/25 15:35:48;;;;;;;;;;;;;;;;;;6154428;23;19934;-90
2023/09/25 15:38:14;;;;;;;;;;;;;;;;;;6151503;23;19904;-90
2023/09/25 15:40:46;;;;;;;;;;;;;;;;;;6154238;23;19915;-91
2023/09/25 15:43:12;;;;;;;;;;;;;;;;;;6152585;23;20631;-91
2023/09/25 15:45:41;;;;;;;;;;;;;;;;;;6152852;23;20319;-90
2023/09/25 15:48:07;;;;;;;;;;;;;;;;;;6152935;23;20234;-89
2023/09/25 15:50:33;;;;;;;;;;;;;;;;;;6154686;23;20100;-92
2023/09/25 15:52:59;;;;;;;;;;;;;;;;;;6153839;23;19908;-92
2023/09/25 15:55:25;;;;;;;;;;;;;;;;;;6157494;23;19920;-91
2023/09/25 15:57:51;;;;;;;;;;;;;;;;;;6152838;23;19908;-91
2023/09/25 16:00:20;;;;;;;;;;;;;;;;;;6155244;23;19909;-91
2023/09/25 16:02:46;;;;;;;;;;;;;;;;;;6155376;23;20401;-91
2023/09/25 16:05:12;;;;;;;;;;;;;;;;;;6155305;23;19920;-92
2023/09/25 16:07:39;;;;;;;;;;;;;;;;;;6154752;23;20346;-92
2023/09/25 16:10:05;;;;;;;;;;;;;;;;;;6155472;23;19935;-91
2023/09/25 16:12:31;;;;;;;;;;;;;;;;;;6155238;23;20341;-91
2023/09/25 16:14:58;;;;;;;;;;;;;;;;;;6153356;23;19951;-91
2023/09/25 16:17:24;;;;;;;;;;;;;;;;;;6153589;23;19915;-91
2023/09/25 16:19:50;;;;;;;;;;;;;;;;;;6155036;23;19904;-92
2023/09/25 16:22:16;;;;;;;;;;;;;;;;;;6152865;23;20381;-89
2023/09/25 16:24:42;;;;;;;;;;;;;;;;;;6153139;23;20350;-89
2023/09/25 16:27:08;;;;;;;;;;;;;;;;;;6152165;23;19919;-89
2023/09/25 16:29:33;;;;;;;;;;;;;;;;;;6178521;23;19911;-89
2023/09/25 16:31:59;;;;;;;;;;;;;;;;;;6179966;23;20523;-89
2023/09/25 16:34:25;;;;;;;;;;;;;;;;;;6180496;23;19982;-89
2023/09/25 16:36:51;;;;;;;;;;;;;;;;;;6153038;23;19908;-90
2023/09/25 16:39:17;;;;;;;;;;;;;;;;;;6153428;23;19915;-89